createdAt,value
2023-01-02T00:02:10.211Z,40.83
2023-01-02T00:05:12.687Z,42.00
2023-01-02T00:08:16.916Z,41.88
2023-01-02T00:11:19.578Z,43.90
2023-01-02T00:14:22.057Z,39.20
2023-01-02T00:17:25.181Z,40.23
2023-01-02T00:20:27.995Z,38.42
2023-01-02T00:23:31.213Z,36.42
2023-01-02T00:26:33.606Z,45.33
2023-01-02T00:29:36.138Z,48.25
2023-01-02T00:32:38.623Z,55.57
2023-01-02T00:35:41.027Z,54.22
2023-01-02T00:38:43.489Z,48.75
2023-01-02T00:41:45.983Z,44.35
2023-01-02T00:44:48.411Z,43.50
2023-01-02T00:47:50.842Z,44.50
2023-01-02T00:50:55.415Z,46.33
2023-01-02T00:53:57.872Z,45.28
2023-01-02T00:57:00.316Z,47.53
2023-01-02T01:00:03.922Z,48.85
2023-01-02T01:03:06.843Z,44.97
2023-01-02T01:06:10.740Z,43.05
2023-01-02T01:09:13.685Z,43.30
2023-01-02T01:12:16.231Z,42.30
2023-01-02T01:15:18.711Z,45.95
2023-01-02T01:18:21.088Z,47.07
2023-01-02T01:21:23.692Z,45.67
2023-01-02T01:24:26.531Z,42.05
2023-01-02T01:27:29.034Z,33.72
2023-01-02T01:30:33.312Z,33.58
2023-01-02T01:33:36.085Z,33.60
2023-01-02T01:36:38.581Z,35.58
2023-01-02T01:39:41.027Z,34.83
2023-01-02T01:42:43.487Z,33.63
2023-01-02T01:45:46.056Z,33.67
2023-01-02T01:48:51.385Z,32.27
2023-01-02T01:51:57.871Z,34.55
2023-01-02T01:55:05.029Z,34.90
2023-01-02T01:58:22.514Z,32.80
2023-01-02T02:01:25.118Z,33.80
2023-01-02T02:04:27.734Z,34.03
2023-01-02T02:07:30.815Z,33.78
2023-01-02T02:10:33.281Z,32.97
2023-01-02T02:13:35.829Z,32.08
2023-01-02T02:17:02.384Z,32.15
2023-01-02T02:20:29.963Z,29.43
2023-01-02T02:23:43.717Z,32.67
2023-01-02T02:27:07.886Z,31.45
2023-01-02T02:30:24.808Z,30.13
2023-01-02T02:33:42.159Z,30.77
2023-01-02T02:36:55.061Z,30.57
2023-01-02T02:40:18.935Z,29.55
2023-01-02T02:43:58.696Z,30.90
2023-01-02T02:47:14.811Z,29.20
2023-01-02T02:50:23.476Z,29.42
2023-01-02T02:53:29.184Z,30.70
2023-01-02T02:56:31.759Z,31.10
2023-01-02T02:59:36.455Z,30.88
2023-01-02T03:02:39.077Z,29.25
2023-01-02T03:05:43.546Z,29.85
2023-01-02T03:09:26.302Z,31.37
2023-01-02T03:12:39.206Z,27.95
2023-01-02T03:15:49.231Z,27.08
2023-01-02T03:19:07.142Z,28.30
2023-01-02T03:22:17.377Z,29.00
2023-01-02T03:25:21.217Z,29.60
2023-01-02T03:28:26.485Z,30.38
2023-01-02T03:31:30.952Z,30.60
2023-01-02T03:34:34.651Z,31.13
2023-01-02T03:37:41.494Z,30.02
2023-01-02T03:40:47.395Z,29.97
2023-01-02T03:43:56.561Z,29.05
2023-01-02T03:47:29.786Z,31.48
2023-01-02T03:50:38.877Z,33.10
2023-01-02T03:53:41.622Z,29.13
2023-01-02T03:56:57.487Z,29.23
2023-01-02T04:00:10.739Z,28.70
2023-01-02T04:03:21.076Z,28.90
2023-01-02T04:06:30.934Z,26.50
2023-01-02T04:09:34.751Z,28.17
2023-01-02T04:12:38.883Z,28.97
2023-01-02T04:15:42.015Z,29.70
2023-01-02T04:18:49.078Z,30.63
2023-01-02T04:21:54.674Z,29.92
2023-01-02T04:25:03.575Z,29.65
2023-01-02T04:28:12.946Z,30.93
2023-01-02T04:31:16.687Z,27.65
2023-01-02T04:34:19.982Z,29.67
2023-01-02T04:37:29.726Z,29.08
2023-01-02T04:40:38.229Z,28.55
2023-01-02T04:43:40.810Z,28.00
2023-01-02T04:46:43.343Z,28.48
2023-01-02T04:49:45.753Z,30.73
2023-01-02T04:52:48.221Z,28.08
2023-01-02T04:55:56.793Z,29.45
2023-01-02T04:58:59.318Z,28.40
2023-01-02T05:02:02.213Z,29.55
2023-01-02T05:05:05.698Z,30.75
2023-01-02T05:08:13.864Z,30.50
2023-01-02T05:11:19.737Z,37.42
2023-01-02T05:14:22.153Z,32.67
2023-01-02T05:17:24.614Z,30.20
2023-01-02T05:20:28.984Z,32.67
2023-01-02T05:23:49.817Z,37.25
2023-01-02T05:26:52.377Z,33.00
2023-01-02T05:29:54.852Z,41.90
2023-01-02T05:32:57.249Z,35.55
2023-01-02T05:35:59.679Z,34.65
2023-01-02T05:39:02.128Z,35.22
2023-01-02T05:42:04.648Z,36.90
2023-01-02T05:45:07.753Z,33.37
2023-01-02T05:48:10.239Z,33.90
2023-01-02T05:51:14.828Z,34.45
2023-01-02T05:54:17.304Z,34.05
2023-01-02T05:57:19.693Z,32.72
2023-01-02T06:00:23.347Z,32.57
2023-01-02T06:03:25.981Z,33.15
2023-01-02T06:06:38.295Z,40.38
2023-01-02T06:09:41.718Z,35.67
2023-01-02T06:12:44.207Z,36.85
2023-01-02T06:15:46.619Z,36.60
2023-01-02T06:18:49.784Z,36.17
2023-01-02T06:21:52.276Z,37.42
2023-01-02T06:24:54.726Z,36.33
2023-01-02T06:27:57.149Z,40.90
2023-01-02T06:31:11.356Z,40.67
2023-01-02T06:34:13.814Z,36.58
2023-01-02T06:37:16.223Z,38.47
2023-01-02T06:40:18.672Z,36.05
2023-01-02T06:43:21.527Z,37.80
2023-01-02T06:46:24.301Z,35.83
2023-01-02T06:49:26.683Z,34.05
2023-01-02T06:52:29.311Z,33.65
2023-01-02T06:55:31.745Z,34.05
2023-01-02T06:58:35.664Z,37.60
2023-01-02T07:01:38.150Z,34.73
2023-01-02T07:04:40.649Z,31.70
2023-01-02T07:07:43.090Z,32.65
2023-01-02T07:10:50.981Z,40.90
2023-01-02T07:13:55.583Z,39.00
2023-01-02T07:16:58.082Z,40.13
2023-01-02T07:20:02.193Z,36.40
2023-01-02T07:23:05.038Z,32.97
2023-01-02T07:26:08.029Z,35.47
2023-01-02T07:29:10.471Z,39.08
2023-01-02T07:32:12.999Z,35.97
2023-01-02T07:35:15.974Z,33.22
2023-01-02T07:38:18.526Z,30.45
2023-01-02T07:41:24.018Z,28.27
2023-01-02T07:44:26.411Z,29.08
2023-01-02T07:47:28.831Z,25.40
2023-01-02T07:50:35.698Z,26.40
2023-01-02T07:53:38.900Z,32.75
2023-01-02T07:56:41.348Z,28.88
2023-01-02T07:59:47.154Z,32.22
2023-01-02T08:02:55.008Z,34.63
2023-01-02T08:06:11.479Z,34.08
2023-01-02T08:09:13.935Z,43.92
2023-01-02T08:12:16.395Z,33.88
2023-01-02T08:15:18.867Z,35.55
2023-01-02T08:18:21.300Z,31.53
2023-01-02T08:21:25.285Z,30.33
2023-01-02T08:24:27.705Z,30.55
2023-01-02T08:27:30.199Z,29.77
2023-01-02T08:30:32.818Z,35.08
2023-01-02T08:33:35.420Z,34.00
2023-01-02T08:36:37.783Z,30.73
2023-01-02T08:39:40.216Z,25.88
2023-01-02T08:42:43.253Z,23.67
2023-01-02T08:45:45.719Z,23.92
2023-01-02T08:48:48.206Z,25.37
2023-01-02T08:51:50.670Z,26.35
2023-01-02T08:54:53.081Z,25.30
2023-01-02T08:57:55.479Z,22.52
2023-01-02T09:00:57.960Z,23.08
2023-01-02T09:04:03.740Z,24.37
2023-01-02T09:07:08.790Z,24.23
2023-01-02T09:10:11.687Z,26.02
2023-01-02T09:13:15.434Z,24.10
2023-01-02T09:16:18.066Z,25.42
2023-01-02T09:19:20.627Z,22.27
2023-01-02T09:22:23.093Z,22.17
2023-01-02T09:25:25.536Z,23.17
2023-01-02T09:28:28.918Z,22.77
2023-01-02T09:31:31.434Z,22.95
2023-01-02T09:34:33.864Z,25.10
2023-01-02T09:37:38.631Z,25.40
2023-01-02T09:40:53.018Z,23.95
2023-01-02T09:44:13.211Z,23.48
2023-01-02T09:47:21.648Z,25.45
2023-01-02T09:50:29.688Z,29.73
2023-01-02T09:53:33.461Z,26.40
2023-01-02T09:56:40.683Z,25.27
2023-01-02T09:59:47.318Z,25.42
2023-01-02T10:03:11.449Z,26.40
2023-01-02T10:06:35.569Z,33.77
2023-01-02T10:09:48.412Z,33.78
2023-01-02T10:13:15.158Z,25.27
2023-01-02T10:16:21.700Z,24.67
2023-01-02T10:19:40.851Z,24.77
2023-01-02T10:22:49.289Z,24.03
2023-01-02T10:25:55.791Z,24.67
2023-01-02T10:29:25.619Z,25.00
2023-01-02T10:32:30.041Z,24.85
2023-01-02T10:35:40.484Z,25.58
2023-01-02T10:38:42.989Z,26.27
2023-01-02T10:41:50.105Z,23.83
2023-01-02T10:44:52.870Z,24.73
2023-01-02T10:47:55.328Z,24.00
2023-01-02T10:51:02.388Z,24.90
2023-01-02T10:54:09.409Z,26.70
2023-01-02T10:57:13.679Z,25.55
2023-01-02T11:00:23.895Z,29.73
2023-01-02T11:03:28.065Z,28.55
2023-01-02T11:06:39.240Z,25.27
2023-01-02T11:09:54.470Z,24.20
2023-01-02T11:13:02.515Z,23.88
2023-01-02T11:16:05.436Z,26.00
2023-01-02T11:19:20.435Z,26.85
2023-01-02T11:22:35.401Z,27.63
2023-01-02T11:25:42.326Z,28.87
2023-01-02T11:28:45.011Z,40.08
2023-01-02T11:31:57.289Z,35.17
2023-01-02T11:35:02.474Z,40.70
2023-01-02T11:38:05.135Z,36.17
2023-01-02T11:41:47.224Z,35.60
2023-01-02T11:44:52.832Z,29.63
2023-01-02T11:48:00.732Z,26.42
2023-01-02T11:51:03.152Z,27.35
2023-01-02T11:54:13.207Z,37.05
2023-01-02T11:57:44.850Z,33.80
2023-01-02T12:00:51.268Z,29.83
2023-01-02T12:03:54.136Z,26.58
2023-01-02T12:07:11.974Z,27.67
2023-01-02T12:10:48.000Z,27.80
2023-01-02T12:13:56.109Z,26.80
2023-01-02T12:17:12.096Z,24.65
2023-01-02T12:20:29.010Z,26.17
2023-01-02T12:23:43.471Z,25.33
2023-01-02T12:27:08.488Z,23.00
2023-01-02T12:30:19.429Z,24.83
2023-01-02T12:33:44.823Z,24.85
2023-01-02T12:37:11.906Z,34.17
2023-01-02T12:40:22.972Z,23.83
2023-01-02T12:43:53.343Z,21.73
2023-01-02T12:47:07.488Z,21.50
2023-01-02T12:50:41.645Z,20.02
2023-01-02T12:54:20.401Z,22.33
2023-01-02T12:57:31.395Z,21.90
2023-01-02T13:00:53.158Z,19.75
2023-01-02T13:04:01.279Z,17.67
2023-01-02T13:07:14.115Z,17.63
2023-01-02T13:10:19.909Z,20.33
2023-01-02T13:13:25.832Z,21.75
2023-01-02T13:16:28.496Z,23.40
2023-01-02T13:19:40.748Z,24.13
2023-01-02T13:23:20.458Z,36.17
2023-01-02T13:26:25.308Z,39.53
2023-01-02T13:29:30.239Z,35.03
2023-01-02T13:32:32.951Z,24.52
2023-01-02T13:35:37.704Z,23.00
2023-01-02T13:38:41.296Z,25.63
2023-01-02T13:42:10.703Z,25.63
2023-01-02T13:45:21.155Z,26.83
2023-01-02T13:48:40.778Z,25.67
2023-01-02T13:51:43.614Z,27.57
2023-01-02T13:55:31.056Z,24.63
2023-01-02T13:58:45.012Z,24.70
2023-01-02T14:02:18.018Z,26.17
2023-01-02T14:05:57.816Z,31.58
2023-01-02T14:09:07.358Z,36.30
2023-01-02T14:12:12.675Z,44.22
2023-01-02T14:15:20.583Z,28.30
2023-01-02T14:18:30.872Z,21.35
2023-01-02T14:21:36.175Z,21.13
2023-01-02T14:24:52.742Z,20.67
2023-01-02T14:27:58.389Z,21.90
2023-01-02T14:31:16.633Z,25.30
2023-01-02T14:34:24.007Z,32.28
2023-01-02T14:37:42.564Z,26.15
2023-01-02T14:40:46.186Z,36.93
2023-01-02T14:43:48.885Z,33.28
2023-01-02T14:46:51.624Z,29.02
2023-01-02T14:49:57.814Z,101.07
2023-01-02T14:53:06.647Z,87.38
2023-01-02T14:56:16.330Z,109.97
2023-01-02T14:59:40.759Z,70.28
2023-01-02T15:02:46.134Z,37.45
2023-01-02T15:05:56.672Z,29.42
2023-01-02T15:09:06.070Z,30.30
2023-01-02T15:12:47.876Z,30.63
2023-01-02T15:15:56.012Z,33.25
2023-01-02T15:18:59.352Z,32.95
2023-01-02T15:22:12.762Z,33.67
2023-01-02T15:25:30.137Z,32.33
2023-01-02T15:28:33.754Z,40.53
2023-01-02T15:31:39.279Z,35.92
2023-01-02T15:34:41.849Z,33.40
2023-01-02T15:37:46.028Z,32.30
2023-01-02T15:40:48.885Z,41.50
2023-01-02T15:44:12.618Z,38.03
2023-01-02T15:47:15.528Z,33.00
2023-01-02T15:50:29.248Z,32.13
2023-01-02T15:53:32.948Z,32.15
2023-01-02T15:56:37.893Z,34.45
2023-01-02T15:59:40.862Z,45.00
2023-01-02T16:02:44.611Z,40.50
2023-01-02T16:05:51.658Z,40.75
2023-01-02T16:08:56.025Z,41.95
2023-01-02T16:12:01.619Z,49.85
2023-01-02T16:15:04.594Z,38.57
2023-01-02T16:18:10.828Z,35.80
2023-01-02T16:21:14.503Z,48.08
2023-01-02T16:24:19.122Z,43.22
2023-01-02T16:27:28.220Z,39.03
2023-01-02T16:30:41.180Z,38.70
2023-01-02T16:33:45.748Z,45.50
2023-01-02T16:36:48.262Z,47.50
2023-01-02T16:39:51.003Z,51.15
2023-01-02T16:43:03.217Z,42.17
2023-01-02T16:46:09.968Z,50.03
2023-01-02T16:49:17.009Z,39.10
2023-01-02T16:52:19.597Z,39.55
2023-01-02T16:55:23.544Z,40.03
2023-01-02T16:58:26.208Z,36.88
2023-01-02T17:01:29.627Z,37.37
2023-01-02T17:04:32.351Z,46.78
2023-01-02T17:07:34.750Z,46.70
2023-01-02T17:10:42.097Z,39.35
2023-01-02T17:13:44.761Z,40.50
2023-01-02T17:16:47.265Z,43.63
2023-01-02T17:19:49.707Z,36.13
2023-01-02T17:22:52.227Z,39.20
2023-01-02T17:25:54.628Z,46.20
2023-01-02T17:28:57.074Z,42.63
2023-01-02T17:31:59.512Z,48.47
2023-01-02T17:35:03.148Z,40.65
2023-01-02T17:38:05.667Z,38.53
2023-01-02T17:41:08.943Z,37.80
2023-01-02T17:44:11.346Z,37.70
2023-01-02T17:47:57.310Z,44.47
2023-01-02T17:50:36.762Z,43.58
2023-01-02T17:53:42.372Z,47.47
2023-01-02T17:56:44.867Z,68.22
2023-01-02T17:59:47.852Z,65.95
2023-01-02T18:02:52.163Z,48.03
2023-01-02T18:05:54.809Z,49.03
2023-01-02T18:08:57.574Z,42.65
2023-01-02T18:12:00.206Z,55.33
2023-01-02T18:15:10.441Z,51.72
2023-01-02T18:18:14.720Z,65.40
2023-01-02T18:21:20.413Z,61.33
2023-01-02T18:24:27.387Z,64.53
2023-01-02T18:27:32.698Z,54.92
2023-01-02T18:30:35.624Z,55.90
2023-01-02T18:33:38.150Z,42.43
2023-01-02T18:36:41.098Z,39.78
2023-01-02T18:39:43.554Z,40.83
2023-01-02T18:42:49.191Z,34.13
2023-01-02T18:45:54.684Z,32.78
2023-01-02T18:48:57.200Z,44.33
2023-01-02T18:52:25.187Z,46.25
2023-01-02T18:55:34.125Z,43.25
2023-01-02T18:58:51.413Z,48.05
2023-01-02T19:01:55.419Z,44.65
2023-01-02T19:04:59.268Z,44.33
2023-01-02T19:08:31.412Z,47.60
2023-01-02T19:11:52.813Z,42.05
2023-01-02T19:14:55.276Z,39.00
2023-01-02T19:18:06.270Z,36.38
2023-01-02T19:21:08.785Z,37.40
2023-01-02T19:24:19.999Z,37.42
2023-01-02T19:27:36.882Z,37.20
2023-01-02T19:30:40.698Z,38.03
2023-01-02T19:33:59.904Z,36.05
2023-01-02T19:37:11.430Z,35.93
2023-01-02T19:40:19.996Z,37.42
2023-01-02T19:43:22.874Z,38.10
2023-01-02T19:46:25.392Z,41.22
2023-01-02T19:49:27.952Z,37.38
2023-01-02T19:52:30.958Z,34.43
2023-01-02T19:55:36.567Z,36.05
2023-01-02T19:58:39.429Z,35.55
2023-01-02T20:01:41.997Z,35.03
2023-01-02T20:04:45.155Z,39.95
2023-01-02T20:07:48.192Z,36.43
2023-01-02T20:10:51.132Z,34.90
2023-01-02T20:13:54.092Z,36.33
2023-01-02T20:16:56.844Z,35.00
2023-01-02T20:19:59.424Z,35.53
2023-01-02T20:23:01.837Z,36.87
2023-01-02T20:26:05.107Z,34.95
2023-01-02T20:29:07.597Z,34.75
2023-01-02T20:32:10.366Z,37.20
2023-01-02T20:35:13.658Z,36.90
2023-01-02T20:38:16.436Z,36.37
2023-01-02T20:41:19.058Z,38.60
2023-01-02T20:44:22.191Z,50.20
2023-01-02T20:47:24.979Z,60.92
2023-01-02T20:50:28.363Z,53.80
2023-01-02T20:53:31.099Z,49.33
2023-01-02T20:56:34.691Z,49.20
2023-01-02T20:59:38.340Z,46.95
2023-01-02T21:02:41.750Z,44.42
2023-01-02T21:05:44.377Z,50.08
2023-01-02T21:08:46.945Z,47.20
2023-01-02T21:11:49.460Z,54.13
2023-01-02T21:14:51.896Z,65.38
2023-01-02T21:17:54.428Z,54.65
2023-01-02T21:21:00.933Z,69.60
2023-01-02T21:24:04.973Z,86.13
2023-01-02T21:27:12.783Z,78.63
2023-01-02T21:30:17.612Z,84.20
2023-01-02T21:33:22.169Z,85.85
2023-01-02T21:36:24.668Z,79.72
2023-01-02T21:39:27.840Z,67.73
2023-01-02T21:42:30.329Z,67.40
2023-01-02T21:45:32.714Z,87.07
2023-01-02T21:48:35.161Z,97.35
2023-01-02T21:51:38.279Z,70.15
2023-01-02T21:54:40.743Z,66.97
2023-01-02T22:01:12.765Z,60.17
2023-01-02T22:04:15.367Z,66.60
2023-01-02T22:07:35.915Z,58.78
2023-01-02T22:10:43.108Z,53.80
2023-01-02T22:13:45.691Z,42.63
2023-01-02T22:16:48.146Z,45.95
2023-01-02T22:19:50.574Z,44.40
2023-01-02T22:22:53.167Z,39.92
2023-01-02T22:25:55.734Z,38.47
2023-01-02T22:28:58.350Z,38.53
2023-01-02T22:32:03.742Z,38.22
2023-01-02T22:35:07.814Z,34.63
2023-01-02T22:38:10.621Z,34.60
2023-01-02T22:41:13.092Z,35.13
2023-01-02T22:44:24.157Z,34.50
2023-01-02T22:47:31.915Z,32.95
2023-01-02T22:50:43.316Z,30.98
2023-01-02T22:53:45.875Z,32.03
2023-01-02T22:56:48.330Z,34.30
2023-01-02T22:59:50.751Z,36.17
2023-01-02T23:02:53.394Z,40.10
2023-01-02T23:05:56.067Z,37.42
2023-01-02T23:08:58.494Z,38.35
2023-01-02T23:12:00.865Z,38.20
2023-01-02T23:15:03.474Z,38.92
2023-01-02T23:18:24.178Z,35.90
2023-01-02T23:21:27.520Z,34.85
2023-01-02T23:24:35.776Z,38.47
2023-01-02T23:27:38.235Z,37.53
2023-01-02T23:30:41.438Z,38.63
2023-01-02T23:33:43.951Z,39.80
2023-01-02T23:36:46.485Z,41.08
2023-01-02T23:39:49.024Z,43.22
2023-01-02T23:42:51.522Z,41.27
2023-01-02T23:45:54.559Z,43.20
2023-01-02T23:48:58.166Z,59.28
2023-01-02T23:52:00.714Z,54.65
2023-01-02T23:55:03.171Z,52.83
2023-01-02T23:58:05.774Z,58.03
